Time;durP1;ratioP1;P1;durP2;ratioP2;P2;SDS_P1;SDS_P2;PMS_P1;PMS_P2;Temp;Humidity;BMP_temperature;BMP_pressure;BME280_temperature;BME280_humidity;BME280_pressure;Samples;Min_cycle;Max_cycle;Signal;HPM_P1;HPM_P2
2024/01/10 00:02:21;;;;;;;5.88;3.20;;;;;;;;;;5003482;28;96122;-71
2024/01/10 00:04:47;;;;;;;5.95;3.13;;;;;;;;;;5001524;28;94040;-71
2024/01/10 00:07:13;;;;;;;5.13;2.85;;;;;;;;;;5005694;28;92587;-72
2024/01/10 00:09:40;;;;;;;12.55;2.80;;;;;;;;;;5002165;28;92704;-71
2024/01/10 00:12:06;;;;;;;7.13;3.08;;;;;;;;;;5003204;28;93094;-69
2024/01/10 00:14:33;;;;;;;6.80;3.55;;;;;;;;;;4999921;28;95742;-72
2024/01/10 00:16:59;;;;;;;3.30;2.42;;;;;;;;;;4999346;28;92932;-72
2024/01/10 00:19:25;;;;;;;6.05;3.13;;;;;;;;;;4995034;28;93327;-72
2024/01/10 00:21:51;;;;;;;8.32;2.97;;;;;;;;;;4998959;28;93769;-72
2024/01/10 00:24:18;;;;;;;5.03;2.92;;;;;;;;;;5004717;28;92501;-73
2024/01/10 00:26:44;;;;;;;5.10;3.10;;;;;;;;;;5002037;28;93683;-72
2024/01/10 00:29:11;;;;;;;5.57;2.97;;;;;;;;;;5001226;28;92595;-72
2024/01/10 00:31:37;;;;;;;3.63;2.75;;;;;;;;;;5004953;28;92469;-72
2024/01/10 00:34:04;;;;;;;5.25;2.75;;;;;;;;;;5002592;28;93916;-72
2024/01/10 00:36:30;;;;;;;4.28;3.00;;;;;;;;;;4996419;28;92798;-72
2024/01/10 00:38:56;;;;;;;6.30;3.30;;;;;;;;;;4998493;28;94953;-72
2024/01/10 00:41:23;;;;;;;3.53;2.50;;;;;;;;;;5003130;28;93394;-72
2024/01/10 00:43:49;;;;;;;4.30;2.55;;;;;;;;;;5002312;28;92735;-72
2024/01/10 00:46:16;;;;;;;4.97;2.85;;;;;;;;;;5008715;28;96773;-72
2024/01/10 00:48:42;;;;;;;5.53;3.03;;;;;;;;;;5002658;28;92571;-72
2024/01/10 00:51:09;;;;;;;4.75;3.08;;;;;;;;;;5003308;28;93415;-72
2024/01/10 00:53:36;;;;;;;6.85;3.00;;;;;;;;;;4996037;28;93483;-72
2024/01/10 00:56:02;;;;;;;4.95;3.15;;;;;;;;;;5004739;28;91740;-72
2024/01/10 00:58:29;;;;;;;3.72;2.78;;;;;;;;;;4999713;28;92436;-72
2024/01/10 01:00:55;;;;;;;4.75;2.90;;;;;;;;;;5004908;28;93367;-64
2024/01/10 01:03:22;;;;;;;4.25;3.45;;;;;;;;;;5001485;28;95308;-63
2024/01/10 01:05:48;;;;;;;4.68;3.33;;;;;;;;;;5005274;28;96596;-64
2024/01/10 01:08:14;;;;;;;10.30;3.20;;;;;;;;;;5009284;28;93482;-64
2024/01/10 01:10:41;;;;;;;8.60;3.42;;;;;;;;;;5005734;28;94329;-63
2024/01/10 01:13:07;;;;;;;6.85;3.20;;;;;;;;;;5002488;28;93535;-63
2024/01/10 01:15:34;;;;;;;6.53;3.05;;;;;;;;;;5003194;28;92394;-65
2024/01/10 01:18:00;;;;;;;10.88;3.80;;;;;;;;;;5005008;28;93152;-64
2024/01/10 01:20:27;;;;;;;8.82;3.38;;;;;;;;;;5005680;28;95314;-63
2024/01/10 01:22:56;;;;;;;6.63;3.33;;;;;;;;;;4999864;28;92730;-63
2024/01/10 01:25:23;;;;;;;4.47;3.22;;;;;;;;;;5006935;28;93150;-64
2024/01/10 01:27:49;;;;;;;5.18;3.00;;;;;;;;;;5000813;28;95798;-64
2024/01/10 01:30:16;;;;;;;4.22;3.08;;;;;;;;;;5008737;28;92572;-63
2024/01/10 01:32:42;;;;;;;8.65;3.33;;;;;;;;;;4997968;28;92934;-64
2024/01/10 01:35:08;;;;;;;5.50;3.33;;;;;;;;;;5002873;28;92514;-64
2024/01/10 01:37:35;;;;;;;6.75;3.38;;;;;;;;;;5000871;28;93083;-63
2024/01/10 01:40:01;;;;;;;5.00;2.80;;;;;;;;;;5005971;28;93482;-63
2024/01/10 01:42:28;;;;;;;6.55;3.38;;;;;;;;;;5003034;28;94065;-64
2024/01/10 01:44:54;;;;;;;5.55;3.20;;;;;;;;;;5007904;28;93462;-64
2024/01/10 01:47:21;;;;;;;5.25;2.88;;;;;;;;;;4997419;28;92458;-63
2024/01/10 01:49:47;;;;;;;4.40;2.95;;;;;;;;;;5002016;28;92440;-63
2024/01/10 01:52:14;;;;;;;5.82;3.05;;;;;;;;;;5001982;28;95009;-63
2024/01/10 01:54:40;;;;;;;8.93;3.15;;;;;;;;;;5002449;28;92576;-63
2024/01/10 01:57:07;;;;;;;5.30;3.47;;;;;;;;;;5000841;28;93441;-63
2024/01/10 01:59:33;;;;;;;6.05;3.58;;;;;;;;;;5005544;28;93386;-63
2024/01/10 02:02:01;;;;;;;6.28;3.33;;;;;;;;;;5000946;28;92827;-63
2024/01/10 02:04:28;;;;;;;3.53;2.80;;;;;;;;;;5005039;28;93297;-64
2024/01/10 02:06:54;;;;;;;4.95;3.33;;;;;;;;;;5001942;28;93504;-63
2024/01/10 02:09:21;;;;;;;4.72;3.30;;;;;;;;;;5002428;28;92028;-72
2024/01/10 02:11:47;;;;;;;5.05;3.17;;;;;;;;;;5001672;28;92558;-71
2024/01/10 02:14:15;;;;;;;5.50;3.50;;;;;;;;;;5002520;28;92527;-72
2024/01/10 02:16:41;;;;;;;5.95;3.33;;;;;;;;;;5000064;28;94853;-71
2024/01/10 02:19:20;;;;;;;6.78;3.25;;;;;;;;;;5001476;28;92311;-70
2024/01/10 02:21:47;;;;;;;5.47;3.33;;;;;;;;;;5004429;28;92295;-72
2024/01/10 02:24:13;;;;;;;6.32;3.50;;;;;;;;;;5005598;28;92387;-72
2024/01/10 02:26:40;;;;;;;5.65;3.03;;;;;;;;;;5004639;28;92528;-72
2024/01/10 02:29:06;;;;;;;6.70;3.58;;;;;;;;;;5004834;28;92395;-72
2024/01/10 02:31:33;;;;;;;4.00;2.88;;;;;;;;;;5002424;28;92937;-72
2024/01/10 02:33:59;;;;;;;5.07;3.20;;;;;;;;;;5000007;28;93204;-72
2024/01/10 02:36:26;;;;;;;5.07;3.25;;;;;;;;;;5005162;28;92976;-72
2024/01/10 02:38:52;;;;;;;5.30;3.25;;;;;;;;;;5002640;28;94347;-71
2024/01/10 02:41:18;;;;;;;7.70;3.65;;;;;;;;;;5004165;28;94888;-72
2024/01/10 02:43:45;;;;;;;5.50;3.25;;;;;;;;;;4996862;28;95544;-73
2024/01/10 02:46:11;;;;;;;5.38;3.30;;;;;;;;;;4998608;28;93465;-72
2024/01/10 02:48:38;;;;;;;5.10;3.30;;;;;;;;;;5001165;28;92592;-72
2024/01/10 02:51:04;;;;;;;6.85;3.45;;;;;;;;;;4998119;28;93880;-71
2024/01/10 02:53:31;;;;;;;6.03;4.03;;;;;;;;;;4995521;28;94089;-71
2024/01/10 02:55:58;;;;;;;6.15;3.72;;;;;;;;;;5002133;28;92519;-72
2024/01/10 02:58:25;;;;;;;7.40;3.35;;;;;;;;;;5003990;28;93029;-72
2024/01/10 03:00:51;;;;;;;4.70;3.00;;;;;;;;;;4999643;28;92425;-71
2024/01/10 03:03:18;;;;;;;5.18;3.42;;;;;;;;;;5003165;28;93155;-72
2024/01/10 03:05:44;;;;;;;7.03;3.65;;;;;;;;;;4999652;28;95825;-71
2024/01/10 03:08:11;;;;;;;5.32;2.78;;;;;;;;;;4993468;28;92467;-72
2024/01/10 03:10:37;;;;;;;5.78;3.40;;;;;;;;;;4997455;28;93197;-72
2024/01/10 03:13:03;;;;;;;3.65;3.08;;;;;;;;;;5000515;28;94006;-72
2024/01/10 03:15:31;;;;;;;8.93;3.72;;;;;;;;;;4998926;28;92397;-72
2024/01/10 03:17:57;;;;;;;6.28;3.90;;;;;;;;;;5005325;28;93303;-72
2024/01/10 03:20:24;;;;;;;6.20;3.85;;;;;;;;;;4999201;28;93261;-72
2024/01/10 03:22:50;;;;;;;8.75;3.60;;;;;;;;;;4999719;28;93105;-70
2024/01/10 03:25:17;;;;;;;4.75;3.42;;;;;;;;;;4998241;28;94520;-72
2024/01/10 03:27:43;;;;;;;8.02;3.50;;;;;;;;;;5005511;28;92566;-72
2024/01/10 03:30:10;;;;;;;9.73;4.32;;;;;;;;;;4999145;28;95052;-72
2024/01/10 03:32:36;;;;;;;7.28;3.55;;;;;;;;;;5000549;28;93398;-72
2024/01/10 03:35:03;;;;;;;5.68;3.72;;;;;;;;;;4999536;28;92398;-71
2024/01/10 03:37:30;;;;;;;7.78;3.83;;;;;;;;;;5002467;28;93220;-72
2024/01/10 03:39:56;;;;;;;6.30;3.50;;;;;;;;;;5003458;28;94514;-72
2024/01/10 03:42:22;;;;;;;8.98;3.88;;;;;;;;;;5001269;28;93157;-72
2024/01/10 03:44:49;;;;;;;8.25;4.25;;;;;;;;;;4996555;28;93909;-71
2024/01/10 03:47:15;;;;;;;7.38;3.63;;;;;;;;;;5001248;28;91808;-72
2024/01/10 03:49:42;;;;;;;5.45;3.80;;;;;;;;;;5001732;28;92510;-72
2024/01/10 03:52:08;;;;;;;7.35;3.53;;;;;;;;;;5001872;28;93387;-72
2024/01/10 03:54:34;;;;;;;9.25;3.83;;;;;;;;;;5005904;28;94792;-72
2024/01/10 03:57:01;;;;;;;4.93;3.38;;;;;;;;;;5004970;28;95646;-71
2024/01/10 03:59:27;;;;;;;7.18;4.22;;;;;;;;;;5000114;28;93386;-71
2024/01/10 04:01:53;;;;;;;5.57;3.63;;;;;;;;;;5003677;28;92513;-72
2024/01/10 04:04:20;;;;;;;5.43;3.25;;;;;;;;;;4998218;28;93738;-72
2024/01/10 04:06:46;;;;;;;7.28;3.78;;;;;;;;;;4997862;28;92545;-72
2024/01/10 04:09:13;;;;;;;7.72;3.78;;;;;;;;;;4997924;28;93668;-72
2024/01/10 04:11:39;;;;;;;7.97;3.72;;;;;;;;;;5000764;28;92979;-72
2024/01/10 04:14:06;;;;;;;8.57;4.03;;;;;;;;;;4999181;28;92373;-71
2024/01/10 04:16:32;;;;;;;4.85;3.58;;;;;;;;;;4999153;28;94696;-71
2024/01/10 04:18:59;;;;;;;6.30;3.97;;;;;;;;;;5003953;28;95752;-72
2024/01/10 04:21:26;;;;;;;6.78;4.03;;;;;;;;;;5007778;28;92402;-72
2024/01/10 04:23:52;;;;;;;5.90;3.92;;;;;;;;;;5000674;28;92423;-71
2024/01/10 04:26:19;;;;;;;7.55;4.05;;;;;;;;;;5001525;28;92791;-70
2024/01/10 04:28:45;;;;;;;5.55;3.78;;;;;;;;;;5000913;28;93167;-72
2024/01/10 04:31:12;;;;;;;7.43;3.50;;;;;;;;;;5001714;28;94309;-72
2024/01/10 04:33:38;;;;;;;10.70;3.88;;;;;;;;;;5007031;28;93837;-71
2024/01/10 04:36:06;;;;;;;7.25;3.65;;;;;;;;;;5007779;28;93256;-72
2024/01/10 04:38:32;;;;;;;7.72;3.95;;;;;;;;;;5001763;28;93392;-72
2024/01/10 04:40:58;;;;;;;10.68;3.75;;;;;;;;;;5004380;28;92985;-71
2024/01/10 04:43:25;;;;;;;6.78;4.05;;;;;;;;;;5003822;28;94864;-72
2024/01/10 04:45:51;;;;;;;6.30;4.05;;;;;;;;;;5005408;28;92428;-72
2024/01/10 04:48:18;;;;;;;7.35;4.07;;;;;;;;;;4998799;28;93121;-72
2024/01/10 04:50:44;;;;;;;7.03;3.88;;;;;;;;;;5004308;28;94412;-71
2024/01/10 04:53:11;;;;;;;7.20;3.60;;;;;;;;;;5002607;28;92640;-72
2024/01/10 04:55:37;;;;;;;8.38;3.53;;;;;;;;;;5009167;28;94259;-70
2024/01/10 04:58:04;;;;;;;11.85;3.75;;;;;;;;;;4999404;28;93527;-71
2024/01/10 05:00:30;;;;;;;6.40;3.95;;;;;;;;;;4998165;28;92077;-72
2024/01/10 05:02:57;;;;;;;5.22;3.47;;;;;;;;;;5001979;28;93525;-71
2024/01/10 05:05:24;;;;;;;6.82;3.80;;;;;;;;;;5001472;28;94534;-71
2024/01/10 05:07:51;;;;;;;7.00;4.25;;;;;;;;;;5002532;28;95023;-72
2024/01/10 05:10:17;;;;;;;5.68;3.53;;;;;;;;;;5005031;28;93622;-70
2024/01/10 05:12:44;;;;;;;7.65;4.10;;;;;;;;;;4999742;28;92630;-69
2024/01/10 05:15:10;;;;;;;6.57;4.00;;;;;;;;;;5002325;28;93126;-72
2024/01/10 05:17:36;;;;;;;11.10;3.97;;;;;;;;;;5004692;28;93384;-71
2024/01/10 05:20:03;;;;;;;7.70;3.88;;;;;;;;;;4999016;28;92825;-72
2024/01/10 05:22:29;;;;;;;7.82;4.05;;;;;;;;;;5000441;28;93633;-72
2024/01/10 05:24:56;;;;;;;6.70;3.90;;;;;;;;;;5000736;28;92678;-72
2024/01/10 05:27:23;;;;;;;6.75;4.07;;;;;;;;;;4999603;28;92483;-71
2024/01/10 05:29:49;;;;;;;7.75;4.57;;;;;;;;;;5002452;28;93587;-71
2024/01/10 05:32:16;;;;;;;7.80;4.47;;;;;;;;;;4995573;28;95051;-72
2024/01/10 05:34:42;;;;;;;7.78;4.78;;;;;;;;;;5004509;28;95797;-71
2024/01/10 05:37:09;;;;;;;8.77;4.35;;;;;;;;;;5001650;28;93435;-72
2024/01/10 05:39:35;;;;;;;6.93;4.07;;;;;;;;;;4998187;28;93921;-70
2024/01/10 05:42:02;;;;;;;7.75;3.53;;;;;;;;;;4998005;28;93110;-72
2024/01/10 05:44:29;;;;;;;5.68;3.78;;;;;;;;;;5001709;28;93764;-72
2024/01/10 05:46:58;;;;;;;8.05;3.92;;;;;;;;;;4999801;28;92629;-71
2024/01/10 05:49:25;;;;;;;6.25;4.05;;;;;;;;;;5007935;28;94665;-71
2024/01/10 05:51:52;;;;;;;7.10;4.43;;;;;;;;;;5002510;28;92603;-72
2024/01/10 05:54:18;;;;;;;7.20;3.28;;;;;;;;;;5000258;28;93044;-72
2024/01/10 05:56:44;;;;;;;7.05;4.45;;;;;;;;;;5001635;28;97166;-72
2024/01/10 05:59:11;;;;;;;5.82;3.85;;;;;;;;;;4997266;28;93106;-71
2024/01/10 06:01:40;;;;;;;6.95;3.55;;;;;;;;;;5000248;28;96067;-72
2024/01/10 06:04:07;;;;;;;7.85;4.18;;;;;;;;;;4994905;28;93406;-72
2024/01/10 06:06:33;;;;;;;7.28;3.72;;;;;;;;;;4998729;28;92547;-72
2024/01/10 06:08:59;;;;;;;7.00;4.05;;;;;;;;;;5007396;28;93560;-71
2024/01/10 06:11:26;;;;;;;8.82;3.80;;;;;;;;;;4997470;28;92467;-71
2024/01/10 06:13:52;;;;;;;5.35;3.30;;;;;;;;;;4964049;28;1127951;-72
2024/01/10 06:16:23;;;;;;;11.57;4.55;;;;;;;;;;5003750;28;94112;-71
2024/01/10 06:18:49;;;;;;;6.95;4.18;;;;;;;;;;5001570;28;94470;-72
2024/01/10 06:21:16;;;;;;;6.22;4.10;;;;;;;;;;4998189;28;95002;-72
2024/01/10 06:23:42;;;;;;;6.65;3.75;;;;;;;;;;5002365;28;94242;-71
2024/01/10 06:26:09;;;;;;;8.55;4.30;;;;;;;;;;5005757;28;92955;-71
2024/01/10 06:28:35;;;;;;;5.75;3.92;;;;;;;;;;5001474;28;93789;-72
2024/01/10 06:31:02;;;;;;;6.15;4.07;;;;;;;;;;4997298;28;95933;-72
2024/01/10 06:33:29;;;;;;;12.20;4.32;;;;;;;;;;5002985;28;92954;-72
2024/01/10 06:35:55;;;;;;;6.97;4.22;;;;;;;;;;4996836;28;93505;-72
2024/01/10 06:38:23;;;;;;;13.07;4.45;;;;;;;;;;5003228;28;91813;-72
2024/01/10 06:40:50;;;;;;;7.22;4.30;;;;;;;;;;5002013;28;92533;-70
2024/01/10 06:43:17;;;;;;;9.07;4.35;;;;;;;;;;4996192;28;93962;-71
2024/01/10 06:45:43;;;;;;;7.10;4.07;;;;;;;;;;5001794;28;94837;-71
2024/01/10 06:48:09;;;;;;;6.07;4.00;;;;;;;;;;5001690;28;95463;-71
2024/01/10 06:50:37;;;;;;;11.15;5.00;;;;;;;;;;4997689;28;93947;-72
2024/01/10 06:53:03;;;;;;;9.13;4.85;;;;;;;;;;5006743;28;92557;-71
2024/01/10 06:55:30;;;;;;;7.28;4.53;;;;;;;;;;5001649;28;93722;-72
2024/01/10 06:57:56;;;;;;;10.43;4.47;;;;;;;;;;5001243;28;92634;-71
2024/01/10 07:00:23;;;;;;;7.18;4.28;;;;;;;;;;5003132;28;94144;-71
2024/01/10 07:02:49;;;;;;;7.80;4.85;;;;;;;;;;5002145;28;93039;-72
2024/01/10 07:05:16;;;;;;;8.75;4.93;;;;;;;;;;5000909;28;92992;-71
2024/01/10 07:07:43;;;;;;;7.40;4.22;;;;;;;;;;5004041;28;93220;-72
2024/01/10 07:10:10;;;;;;;6.75;4.25;;;;;;;;;;4990649;28;97296;-71
2024/01/10 07:12:37;;;;;;;13.15;5.05;;;;;;;;;;4998851;28;92524;-71
2024/01/10 07:15:03;;;;;;;6.30;3.90;;;;;;;;;;4999275;28;94128;-71
2024/01/10 07:17:30;;;;;;;10.23;4.93;;;;;;;;;;5000054;28;93411;-72
2024/01/10 07:19:56;;;;;;;7.75;5.03;;;;;;;;;;4997348;28;94605;-72
2024/01/10 07:22:23;;;;;;;14.95;4.60;;;;;;;;;;5000942;28;92871;-72
2024/01/10 07:24:49;;;;;;;10.23;4.68;;;;;;;;;;5002740;28;92795;-72
2024/01/10 07:27:16;;;;;;;9.45;4.20;;;;;;;;;;4997936;28;94188;-70
2024/01/10 07:29:42;;;;;;;7.93;5.25;;;;;;;;;;4995406;28;93458;-72
2024/01/10 07:32:11;;;;;;;7.78;4.40;;;;;;;;;;5000066;28;92626;-69
2024/01/10 07:34:38;;;;;;;8.02;4.93;;;;;;;;;;4996870;28;94871;-70
2024/01/10 07:37:04;;;;;;;8.48;4.68;;;;;;;;;;5005593;28;93797;-70
2024/01/10 07:39:31;;;;;;;9.05;5.15;;;;;;;;;;5002978;28;93520;-70
2024/01/10 07:41:57;;;;;;;7.90;4.97;;;;;;;;;;5002424;28;93521;-70
2024/01/10 07:44:24;;;;;;;11.65;5.70;;;;;;;;;;4994157;28;94066;-69
2024/01/10 07:46:53;;;;;;;9.32;5.30;;;;;;;;;;4998033;28;93556;-66
2024/01/10 07:49:21;;;;;;;10.15;5.38;;;;;;;;;;4992739;28;94144;-68
2024/01/10 07:51:48;;;;;;;9.30;4.72;;;;;;;;;;5001054;28;91654;-69
2024/01/10 07:54:14;;;;;;;15.90;5.15;;;;;;;;;;4999830;28;92781;-69
2024/01/10 07:56:41;;;;;;;13.15;5.50;;;;;;;;;;4995311;28;95170;-66
2024/01/10 07:59:07;;;;;;;8.02;4.93;;;;;;;;;;4999869;28;96200;-69
2024/01/10 08:01:34;;;;;;;9.75;5.22;;;;;;;;;;5001358;28;93452;-64
2024/01/10 08:04:00;;;;;;;11.98;5.07;;;;;;;;;;4996999;28;92918;-62
2024/01/10 08:06:27;;;;;;;8.07;4.82;;;;;;;;;;5002194;28;95157;-62
2024/01/10 08:08:58;;;;;;;8.77;4.97;;;;;;;;;;4998264;28;93849;-62
2024/01/10 08:11:25;;;;;;;8.50;5.10;;;;;;;;;;5003751;28;92596;-63
2024/01/10 08:13:51;;;;;;;13.77;5.30;;;;;;;;;;4998180;28;93816;-64
2024/01/10 08:16:18;;;;;;;10.35;4.95;;;;;;;;;;5001207;28;92865;-63
2024/01/10 08:18:45;;;;;;;13.45;5.97;;;;;;;;;;5004208;28;92452;-63
2024/01/10 08:21:11;;;;;;;9.70;4.97;;;;;;;;;;4999663;28;94543;-63
2024/01/10 08:23:38;;;;;;;10.40;5.20;;;;;;;;;;4999650;28;95135;-64
2024/01/10 08:26:08;;;;;;;13.45;5.53;;;;;;;;;;5002992;28;99065;-62
2024/01/10 08:28:34;;;;;;;13.60;6.10;;;;;;;;;;4997740;28;93463;-63
2024/01/10 08:31:00;;;;;;;9.63;4.53;;;;;;;;;;5001573;28;92560;-62
2024/01/10 08:33:30;;;;;;;10.00;5.10;;;;;;;;;;4999099;28;93345;-63
2024/01/10 08:35:58;;;;;;;8.68;4.75;;;;;;;;;;5001859;28;93651;-63
2024/01/10 08:38:25;;;;;;;14.20;6.07;;;;;;;;;;5003690;28;92511;-62
2024/01/10 08:40:51;;;;;;;13.75;4.95;;;;;;;;;;5005999;28;93152;-62
2024/01/10 08:43:18;;;;;;;11.75;6.18;;;;;;;;;;4998732;28;92927;-62
2024/01/10 08:45:44;;;;;;;13.98;5.20;;;;;;;;;;4987898;28;94747;-63
2024/01/10 08:48:13;;;;;;;11.65;5.05;;;;;;;;;;4998855;28;96350;-63
2024/01/10 08:50:39;;;;;;;12.48;5.07;;;;;;;;;;4998315;28;92858;-62
2024/01/10 08:53:06;;;;;;;16.20;5.57;;;;;;;;;;4997018;28;93161;-63
2024/01/10 08:55:33;;;;;;;11.45;5.20;;;;;;;;;;4998349;28;93689;-62
2024/01/10 08:58:00;;;;;;;8.20;4.65;;;;;;;;;;5002193;28;92435;-62
2024/01/10 09:00:27;;;;;;;11.18;5.10;;;;;;;;;;5003503;28;92974;-62
2024/01/10 09:02:54;;;;;;;13.70;5.22;;;;;;;;;;5005902;28;93471;-62
2024/01/10 09:05:21;;;;;;;10.45;5.35;;;;;;;;;;5007581;28;93148;-63
2024/01/10 09:07:49;;;;;;;11.48;5.10;;;;;;;;;;5003068;28;93088;-61
2024/01/10 09:10:16;;;;;;;9.07;4.68;;;;;;;;;;5003087;28;92456;-62
2024/01/10 09:12:45;;;;;;;11.85;5.28;;;;;;;;;;5001267;28;94781;-63
2024/01/10 09:15:14;;;;;;;11.52;5.47;;;;;;;;;;5004595;28;93727;-62
2024/01/10 09:17:43;;;;;;;11.07;5.55;;;;;;;;;;5003982;28;92613;-62
2024/01/10 09:20:10;;;;;;;9.88;5.50;;;;;;;;;;5004224;28;94372;-63
2024/01/10 09:22:37;;;;;;;9.63;6.07;;;;;;;;;;5003813;28;92507;-62
2024/01/10 09:25:05;;;;;;;9.23;5.07;;;;;;;;;;5007749;28;92787;-63
2024/01/10 09:27:33;;;;;;;9.50;5.85;;;;;;;;;;5002640;28;94827;-61
2024/01/10 09:30:01;;;;;;;10.43;5.47;;;;;;;;;;5000579;28;91811;-62
2024/01/10 09:32:29;;;;;;;9.77;5.57;;;;;;;;;;5003521;28;93776;-62
2024/01/10 09:34:56;;;;;;;12.40;5.70;;;;;;;;;;5002495;28;93749;-62
2024/01/10 09:37:23;;;;;;;8.60;5.38;;;;;;;;;;5001696;28;94879;-63
2024/01/10 09:39:50;;;;;;;12.35;6.32;;;;;;;;;;5004914;28;96813;-63
2024/01/10 09:42:16;;;;;;;11.30;6.00;;;;;;;;;;5000710;28;93470;-63
2024/01/10 09:44:42;;;;;;;17.00;6.32;;;;;;;;;;5006048;28;92552;-62
2024/01/10 09:47:09;;;;;;;11.43;6.20;;;;;;;;;;5003746;28;94390;-63
2024/01/10 09:49:36;;;;;;;15.32;5.97;;;;;;;;;;5004449;28;92426;-63
2024/01/10 09:52:04;;;;;;;10.15;5.47;;;;;;;;;;5003346;28;93654;-63
2024/01/10 09:54:30;;;;;;;9.82;5.57;;;;;;;;;;5002401;28;93022;-62
2024/01/10 09:56:57;;;;;;;18.25;6.18;;;;;;;;;;4998579;28;92925;-63
2024/01/10 09:59:23;;;;;;;9.02;5.90;;;;;;;;;;5004102;28;93234;-64
2024/01/10 10:01:51;;;;;;;9.05;5.38;;;;;;;;;;5000483;28;97133;-63
2024/01/10 10:04:19;;;;;;;8.77;5.43;;;;;;;;;;5002538;28;92658;-62
2024/01/10 10:06:46;;;;;;;11.30;6.00;;;;;;;;;;4997909;28;93046;-63
2024/01/10 10:09:14;;;;;;;15.45;5.82;;;;;;;;;;5003240;28;93843;-63
2024/01/10 10:11:40;;;;;;;13.48;6.78;;;;;;;;;;4999114;28;92532;-63
2024/01/10 10:14:16;;;;;;;11.77;6.28;;;;;;;;;;5002206;28;93476;-65
2024/01/10 10:16:43;;;;;;;10.77;5.85;;;;;;;;;;5004653;28;92464;-65
2024/01/10 10:19:11;;;;;;;16.23;6.68;;;;;;;;;;5000845;28;92112;-64
2024/01/10 10:21:41;;;;;;;12.35;6.57;;;;;;;;;;5004577;28;94514;-64
2024/01/10 10:24:09;;;;;;;16.70;6.30;;;;;;;;;;4999130;28;92726;-64
2024/01/10 10:26:36;;;;;;;12.20;6.55;;;;;;;;;;5001376;28;94909;-66
2024/01/10 10:29:03;;;;;;;10.80;6.22;;;;;;;;;;4994091;28;92723;-70
2024/01/10 10:31:31;;;;;;;9.45;6.07;;;;;;;;;;5004174;28;93193;-71
2024/01/10 10:33:59;;;;;;;11.63;6.22;;;;;;;;;;4997984;28;93453;-68
2024/01/10 10:36:26;;;;;;;11.32;6.25;;;;;;;;;;5003444;28;92827;-67
2024/01/10 10:38:53;;;;;;;10.63;6.68;;;;;;;;;;4997898;28;93089;-68
2024/01/10 10:41:19;;;;;;;11.50;5.90;;;;;;;;;;5004053;28;93585;-69
2024/01/10 10:43:47;;;;;;;8.82;5.93;;;;;;;;;;5002549;28;91849;-69
2024/01/10 10:46:14;;;;;;;10.07;6.03;;;;;;;;;;4993967;28;93032;-67
2024/01/10 10:48:42;;;;;;;9.27;6.40;;;;;;;;;;4999315;28;93554;-67
2024/01/10 10:51:10;;;;;;;11.10;5.95;;;;;;;;;;5003112;28;95360;-67
2024/01/10 10:53:38;;;;;;;15.48;6.90;;;;;;;;;;5002975;28;93429;-66
2024/01/10 10:56:07;;;;;;;11.07;6.20;;;;;;;;;;5004538;28;92570;-67
2024/01/10 10:58:35;;;;;;;12.70;6.55;;;;;;;;;;4996166;28;93355;-67
2024/01/10 11:01:06;;;;;;;13.55;6.85;;;;;;;;;;5002687;28;93917;-67
2024/01/10 11:03:37;;;;;;;11.05;6.60;;;;;;;;;;5001608;28;92554;-68
2024/01/10 11:06:04;;;;;;;10.02;6.57;;;;;;;;;;4996266;28;94322;-69
2024/01/10 11:08:33;;;;;;;10.75;6.43;;;;;;;;;;4997795;28;94075;-68
2024/01/10 11:11:01;;;;;;;13.95;6.55;;;;;;;;;;5003268;28;92525;-67
2024/01/10 11:13:33;;;;;;;9.38;6.68;;;;;;;;;;5000093;28;93473;-66
2024/01/10 11:16:18;;;;;;;10.60;5.88;;;;;;;;;;4997460;28;95945;-68
2024/01/10 11:18:59;;;;;;;10.02;6.45;;;;;;;;;;4995437;28;95837;-68
2024/01/10 11:21:31;;;;;;;9.70;6.05;;;;;;;;;;4998646;28;93358;-69
2024/01/10 11:23:59;;;;;;;8.82;5.97;;;;;;;;;;4998053;28;92674;-65
2024/01/10 11:26:26;;;;;;;9.73;6.13;;;;;;;;;;5000627;28;94091;-65
2024/01/10 11:28:52;;;;;;;14.13;6.20;;;;;;;;;;4997907;28;94005;-65
2024/01/10 11:31:31;;;;;;;9.73;6.03;;;;;;;;;;5006751;28;92534;-66
2024/01/10 11:34:01;;;;;;;7.70;5.70;;;;;;;;;;5001425;28;93442;-64
2024/01/10 11:36:28;;;;;;;9.60;5.70;;;;;;;;;;5003414;28;95773;-67
2024/01/10 11:38:58;;;;;;;9.02;5.88;;;;;;;;;;5001300;28;93471;-68
2024/01/10 11:41:26;;;;;;;10.52;6.15;;;;;;;;;;4995443;28;94966;-67
2024/01/10 11:44:08;;;;;;;10.02;6.00;;;;;;;;;;4997696;28;92826;-67
2024/01/10 11:46:35;;;;;;;23.73;7.07;;;;;;;;;;5002810;28;94279;-67
2024/01/10 11:49:01;;;;;;;9.95;6.10;;;;;;;;;;5000406;28;93439;-67
2024/01/10 11:51:29;;;;;;;12.95;6.57;;;;;;;;;;5004472;28;92579;-67
2024/01/10 11:53:56;;;;;;;11.00;5.93;;;;;;;;;;5004367;28;93264;-67
2024/01/10 11:56:23;;;;;;;9.48;6.35;;;;;;;;;;5000041;28;94388;-66
2024/01/10 11:59:05;;;;;;;13.48;6.53;;;;;;;;;;5001257;28;91854;-67
2024/01/10 12:01:32;;;;;;;13.80;7.40;;;;;;;;;;4997127;28;93647;-67
2024/01/10 12:04:00;;;;;;;10.43;6.05;;;;;;;;;;5003629;28;92509;-67
2024/01/10 12:06:44;;;;;;;13.50;6.93;;;;;;;;;;4999400;28;95287;-67
2024/01/10 12:09:13;;;;;;;9.63;5.57;;;;;;;;;;5001384;28;93760;-67
2024/01/10 12:11:40;;;;;;;15.27;6.55;;;;;;;;;;5000529;28;92489;-67
2024/01/10 12:14:07;;;;;;;12.27;6.13;;;;;;;;;;5003966;28;93790;-68
2024/01/10 12:16:33;;;;;;;13.30;6.57;;;;;;;;;;5002557;28;93734;-66
2024/01/10 12:19:00;;;;;;;10.00;6.45;;;;;;;;;;4996978;28;92426;-69
2024/01/10 12:21:26;;;;;;;11.63;6.45;;;;;;;;;;5003808;28;93164;-67
2024/01/10 12:23:53;;;;;;;10.50;6.47;;;;;;;;;;4997854;28;91786;-67
2024/01/10 12:26:19;;;;;;;12.65;7.20;;;;;;;;;;4997851;28;94887;-68
2024/01/10 12:28:56;;;;;;;11.18;6.72;;;;;;;;;;5002791;28;93512;-69
2024/01/10 12:31:23;;;;;;;10.90;6.22;;;;;;;;;;4995376;28;95679;-67
2024/01/10 12:33:49;;;;;;;11.57;6.57;;;;;;;;;;4997985;28;95602;-68
2024/01/10 12:36:17;;;;;;;12.50;7.00;;;;;;;;;;5000237;28;93738;-68
2024/01/10 12:38:44;;;;;;;12.13;6.70;;;;;;;;;;5002772;28;92439;-69
2024/01/10 12:41:11;;;;;;;12.23;6.65;;;;;;;;;;5011287;28;94349;-70
2024/01/10 12:43:38;;;;;;;18.77;6.70;;;;;;;;;;5000989;28;92691;-70
2024/01/10 12:46:08;;;;;;;10.68;6.00;;;;;;;;;;5005040;28;93264;-70
2024/01/10 12:48:37;;;;;;;13.35;7.43;;;;;;;;;;5002446;28;92721;-70
2024/01/10 12:51:07;;;;;;;12.60;7.00;;;;;;;;;;5006168;28;92572;-72
2024/01/10 12:53:42;;;;;;;17.33;6.60;;;;;;;;;;5006139;28;93262;-72
2024/01/10 12:56:09;;;;;;;13.77;6.47;;;;;;;;;;5001051;28;95971;-72
2024/01/10 12:58:36;;;;;;;15.68;6.82;;;;;;;;;;5004434;28;92768;-71
2024/01/10 13:01:03;;;;;;;9.52;6.13;;;;;;;;;;5003822;28;93514;-72
2024/01/10 13:03:29;;;;;;;11.23;6.28;;;;;;;;;;5006407;28;96646;-71
2024/01/10 13:05:56;;;;;;;10.00;6.30;;;;;;;;;;5001389;28;93595;-72
2024/01/10 13:08:22;;;;;;;9.15;6.78;;;;;;;;;;5006487;28;94907;-68
2024/01/10 13:10:49;;;;;;;9.82;6.57;;;;;;;;;;5004843;28;92461;-71
2024/01/10 13:13:17;;;;;;;13.13;7.35;;;;;;;;;;5002964;28;93211;-71
2024/01/10 13:15:45;;;;;;;10.82;6.88;;;;;;;;;;5000990;28;93657;-70
2024/01/10 13:18:12;;;;;;;11.20;6.20;;;;;;;;;;5003900;28;92526;-70
2024/01/10 13:20:39;;;;;;;12.45;6.88;;;;;;;;;;5000366;28;94720;-70
2024/01/10 13:23:05;;;;;;;15.20;7.10;;;;;;;;;;4999911;28;93633;-70
2024/01/10 13:25:32;;;;;;;12.38;6.53;;;;;;;;;;5004122;28;93774;-70
2024/01/10 13:27:58;;;;;;;11.50;7.13;;;;;;;;;;4998356;28;93367;-69
2024/01/10 13:30:24;;;;;;;11.10;6.40;;;;;;;;;;5002246;28;92977;-69
2024/01/10 13:32:51;;;;;;;10.57;6.57;;;;;;;;;;5001947;28;94094;-68
2024/01/10 13:35:17;;;;;;;12.07;7.10;;;;;;;;;;5004664;28;93241;-69
2024/01/10 13:37:47;;;;;;;12.43;6.95;;;;;;;;;;5002650;28;91758;-69
2024/01/10 13:40:13;;;;;;;10.38;7.05;;;;;;;;;;5003368;28;92631;-69
2024/01/10 13:42:40;;;;;;;11.80;7.00;;;;;;;;;;4999579;28;93461;-69
2024/01/10 13:45:07;;;;;;;9.90;6.22;;;;;;;;;;5003132;28;95097;-69
2024/01/10 13:47:34;;;;;;;12.88;8.32;;;;;;;;;;5003092;28;95703;-70
2024/01/10 13:50:00;;;;;;;14.73;7.25;;;;;;;;;;4995496;28;92354;-69
2024/01/10 13:52:27;;;;;;;13.50;6.88;;;;;;;;;;5000405;28;93622;-69
2024/01/10 13:54:53;;;;;;;12.43;6.60;;;;;;;;;;5001391;28;93442;-71
2024/01/10 13:57:20;;;;;;;12.88;6.95;;;;;;;;;;4996142;28;92567;-71
2024/01/10 13:59:47;;;;;;;10.80;6.45;;;;;;;;;;4992873;28;93416;-71
2024/01/10 14:02:14;;;;;;;11.45;6.55;;;;;;;;;;4998054;28;93740;-70
2024/01/10 14:04:41;;;;;;;9.68;6.25;;;;;;;;;;4999482;28;92803;-72
2024/01/10 14:07:07;;;;;;;13.85;6.35;;;;;;;;;;5005263;28;93456;-72
2024/01/10 14:09:34;;;;;;;11.23;5.75;;;;;;;;;;5003549;28;96200;-72
2024/01/10 14:12:01;;;;;;;19.30;6.43;;;;;;;;;;5003149;28;95542;-72
2024/01/10 14:14:27;;;;;;;16.25;6.80;;;;;;;;;;5000289;28;94013;-72
2024/01/10 14:16:56;;;;;;;16.20;6.95;;;;;;;;;;4996573;28;92763;-72
2024/01/10 14:19:22;;;;;;;11.30;6.78;;;;;;;;;;5002274;28;93211;-73
2024/01/10 14:21:48;;;;;;;12.60;7.00;;;;;;;;;;5003843;28;93391;-72
2024/01/10 14:24:15;;;;;;;10.23;6.35;;;;;;;;;;5004432;28;92880;-73
2024/01/10 14:26:42;;;;;;;15.25;6.97;;;;;;;;;;5001314;28;93177;-72
2024/01/10 14:29:08;;;;;;;13.55;7.57;;;;;;;;;;5003222;28;94450;-73
2024/01/10 14:31:35;;;;;;;12.18;6.50;;;;;;;;;;5009150;28;92658;-72
2024/01/10 14:34:21;;;;;;;12.50;6.72;;;;;;;;;;4997400;28;95952;-71
2024/01/10 14:36:48;;;;;;;20.55;7.30;;;;;;;;;;5002933;28;92493;-71
2024/01/10 14:39:15;;;;;;;11.68;6.70;;;;;;;;;;4998257;28;93159;-69